createdAt,value
2017-09-02T00:01:44.124Z,1.13
2017-09-02T00:04:12.420Z,1.90
2017-09-02T00:06:40.773Z,1.60
2017-09-02T00:09:09.078Z,1.73
2017-09-02T00:11:37.438Z,1.30
2017-09-02T00:14:05.741Z,1.67
2017-09-02T00:16:34.998Z,1.80
2017-09-02T00:19:03.329Z,1.47
2017-09-02T00:21:31.633Z,1.97
2017-09-02T00:23:59.965Z,1.60
2017-09-02T00:26:28.307Z,1.53
2017-09-02T00:28:56.916Z,1.77
2017-09-02T00:31:25.221Z,1.50
2017-09-02T00:33:53.875Z,1.60
2017-09-02T00:36:22.177Z,2.37
2017-09-02T00:38:50.492Z,1.87
2017-09-02T00:41:18.889Z,1.57
2017-09-02T00:43:47.197Z,1.70
2017-09-02T00:46:15.490Z,2.10
2017-09-02T00:48:43.833Z,1.80
2017-09-02T00:51:12.169Z,1.90
2017-09-02T00:53:40.481Z,2.30
2017-09-02T00:56:08.823Z,1.90
2017-09-02T00:58:37.166Z,1.73
2017-09-02T01:01:05.467Z,1.87
2017-09-02T01:03:33.849Z,2.17
2017-09-02T01:09:05.967Z,1.70
2017-09-02T01:11:35.138Z,2.03
2017-09-02T01:14:03.475Z,1.40
2017-09-02T01:19:32.111Z,2.03
2017-09-02T01:25:00.695Z,2.00
2017-09-02T01:27:29.005Z,1.80
2017-09-02T01:29:57.386Z,2.00
2017-09-02T01:32:25.705Z,2.00
2017-09-02T01:34:54.008Z,2.00
2017-09-02T01:37:22.343Z,2.10
2017-09-02T01:39:50.683Z,1.67
2017-09-02T01:42:18.991Z,2.70
2017-09-02T01:44:47.293Z,1.70
2017-09-02T01:47:15.621Z,2.10
2017-09-02T01:49:43.977Z,1.60
2017-09-02T01:52:12.303Z,2.37
2017-09-02T01:54:40.701Z,1.63
2017-09-02T01:57:09.045Z,2.10
2017-09-02T01:59:37.351Z,2.07
2017-09-02T02:02:05.651Z,2.70
2017-09-02T02:04:34.086Z,2.00
2017-09-02T02:07:03.386Z,2.10
2017-09-02T02:09:33.458Z,1.97
2017-09-02T02:12:01.930Z,2.10
2017-09-02T02:14:59.862Z,2.50
2017-09-02T02:17:31.993Z,2.50
2017-09-02T02:26:04.151Z,3.30
2017-09-02T02:28:33.475Z,2.80
2017-09-02T02:31:02.301Z,2.63
2017-09-02T02:33:30.726Z,3.27
2017-09-02T02:35:59.014Z,2.33
2017-09-02T02:38:27.571Z,2.40
2017-09-02T02:40:55.929Z,3.70
2017-09-02T02:43:24.225Z,2.80
2017-09-02T02:45:52.559Z,4.63
2017-09-02T02:48:20.856Z,3.80
2017-09-02T02:50:49.187Z,3.90
2017-09-02T02:53:17.491Z,3.93
2017-09-02T02:55:45.823Z,4.33
2017-09-02T02:58:17.532Z,4.93
2017-09-02T03:00:45.867Z,5.73
2017-09-02T03:03:14.172Z,6.90
2017-09-02T03:05:42.514Z,5.83
2017-09-02T03:08:10.863Z,6.10
2017-09-02T03:10:39.173Z,5.80
2017-09-02T03:13:07.569Z,6.87
2017-09-02T03:15:35.881Z,7.57
2017-09-02T03:18:06.253Z,8.20
2017-09-02T03:20:35.373Z,8.70
2017-09-02T03:23:06.579Z,7.97
2017-09-02T03:25:35.305Z,7.80
2017-09-02T03:28:04.631Z,7.60
2017-09-02T03:30:33.082Z,9.20
2017-09-02T03:33:01.426Z,8.07
2017-09-02T03:35:30.369Z,8.63
2017-09-02T03:37:58.714Z,8.23
2017-09-02T03:40:27.975Z,7.47
2017-09-02T03:42:56.305Z,8.67
2017-09-02T03:45:25.704Z,7.40
2017-09-02T03:47:54.038Z,6.73
2017-09-02T03:50:22.345Z,6.37
2017-09-02T03:56:00.613Z,6.90
2017-09-02T03:58:29.968Z,7.83
2017-09-02T04:00:58.274Z,6.27
2017-09-02T04:03:26.614Z,5.70
2017-09-02T04:05:55.330Z,7.40
2017-09-02T04:08:23.663Z,6.27
2017-09-02T04:10:52.036Z,5.97
2017-09-02T04:13:20.380Z,5.70
2017-09-02T04:15:48.688Z,6.90
2017-09-02T04:18:17.025Z,5.50
2017-09-02T04:20:45.326Z,5.30
2017-09-02T04:23:13.662Z,5.57
2017-09-02T04:25:42.071Z,4.50
2017-09-02T04:28:10.365Z,5.67
2017-09-02T04:30:38.706Z,6.87
2017-09-02T04:33:07.028Z,5.47
2017-09-02T04:35:35.704Z,4.50
2017-09-02T04:38:04.054Z,4.33
2017-09-02T04:40:32.406Z,5.13
2017-09-02T04:43:00.737Z,5.30
2017-09-02T04:45:29.350Z,4.80
2017-09-02T04:47:57.696Z,4.70
2017-09-02T04:50:26.008Z,4.83
2017-09-02T04:52:54.366Z,5.10
2017-09-02T04:55:22.671Z,6.27
2017-09-02T04:57:51.000Z,4.90
2017-09-02T05:00:19.415Z,4.80
2017-09-02T05:02:47.727Z,5.97
2017-09-02T05:05:16.020Z,6.10
2017-09-02T05:07:44.346Z,5.17
2017-09-02T05:10:13.354Z,5.77
2017-09-02T05:12:42.533Z,5.50
2017-09-02T05:15:11.561Z,5.90
2017-09-02T05:17:39.872Z,5.80
2017-09-02T05:20:08.219Z,5.20
2017-09-02T05:22:36.537Z,6.73
2017-09-02T05:25:04.869Z,5.30
2017-09-02T05:27:33.177Z,5.40
2017-09-02T05:30:01.514Z,6.77
2017-09-02T05:32:29.809Z,5.43
2017-09-02T05:34:58.144Z,5.40
2017-09-02T05:37:26.491Z,5.20
2017-09-02T05:39:54.794Z,5.70
2017-09-02T05:42:23.126Z,5.00
2017-09-02T05:44:51.453Z,4.50
2017-09-02T05:47:19.773Z,4.57
2017-09-02T05:50:07.920Z,5.37
2017-09-02T05:52:39.379Z,5.30
2017-09-02T05:55:07.702Z,4.20
2017-09-02T05:57:36.881Z,4.63
2017-09-02T06:00:05.214Z,4.93
2017-09-02T06:02:33.535Z,4.73
2017-09-02T06:05:01.882Z,5.10
2017-09-02T06:07:30.203Z,5.47
2017-09-02T06:09:58.507Z,5.70
2017-09-02T06:12:26.849Z,5.40
2017-09-02T06:14:55.145Z,5.93
2017-09-02T06:17:23.500Z,5.40
2017-09-02T06:19:51.799Z,4.70
2017-09-02T06:22:20.102Z,5.80
2017-09-02T06:24:48.441Z,6.10
2017-09-02T06:27:16.771Z,4.80
2017-09-02T06:29:45.118Z,5.00
2017-09-02T06:32:13.414Z,5.33
2017-09-02T06:34:41.820Z,6.07
2017-09-02T06:37:10.217Z,7.10
2017-09-02T06:39:38.546Z,5.77
2017-09-02T06:42:06.883Z,6.17
2017-09-02T06:44:35.186Z,5.20
2017-09-02T06:47:03.532Z,6.33
2017-09-02T06:49:31.852Z,5.90
2017-09-02T06:52:00.148Z,5.83
2017-09-02T06:54:28.494Z,5.70
2017-09-02T06:56:56.791Z,5.30
2017-09-02T06:59:25.098Z,5.00
2017-09-02T07:01:53.444Z,5.37
2017-09-02T07:04:21.741Z,5.17
2017-09-02T07:06:50.075Z,5.73
2017-09-02T07:09:18.382Z,5.50
2017-09-02T07:11:46.719Z,6.00
2017-09-02T07:14:15.050Z,6.00
2017-09-02T07:16:43.378Z,5.60
2017-09-02T07:19:11.698Z,6.03
2017-09-02T07:21:41.127Z,6.10
2017-09-02T07:24:09.473Z,6.03
2017-09-02T07:26:37.802Z,4.90
2017-09-02T07:29:06.173Z,6.60
2017-09-02T07:31:34.472Z,5.80
2017-09-02T07:34:02.782Z,4.70
2017-09-02T07:36:31.114Z,4.40
2017-09-02T07:38:59.410Z,5.90
2017-09-02T07:41:27.708Z,5.60
2017-09-02T07:43:56.042Z,5.27
2017-09-02T07:46:24.342Z,5.17
2017-09-02T07:48:52.722Z,4.00
2017-09-02T07:51:21.038Z,3.67
2017-09-02T07:53:49.374Z,4.20
2017-09-02T07:56:17.684Z,4.40
2017-09-02T07:58:46.804Z,4.20
2017-09-02T08:01:15.098Z,3.93
2017-09-02T08:03:43.465Z,3.73
2017-09-02T08:06:11.867Z,3.97
2017-09-02T08:08:40.294Z,3.40
2017-09-02T08:11:08.690Z,4.27
2017-09-02T08:13:37.042Z,3.30
2017-09-02T08:16:05.347Z,3.23
2017-09-02T08:18:33.651Z,2.73
2017-09-02T08:21:02.007Z,3.33
2017-09-02T08:23:30.318Z,2.83
2017-09-02T08:25:58.624Z,4.60
2017-09-02T08:28:26.966Z,2.90
2017-09-02T08:30:55.282Z,2.50
2017-09-02T08:33:23.623Z,3.00
2017-09-02T08:35:51.942Z,3.00
2017-09-02T08:38:20.247Z,3.40
2017-09-02T08:40:48.575Z,3.23
2017-09-02T08:43:16.932Z,3.23
2017-09-02T08:45:45.240Z,2.80
2017-09-02T08:48:13.541Z,3.20
2017-09-02T08:50:41.881Z,3.43
2017-09-02T08:53:10.194Z,3.30
2017-09-02T08:55:38.494Z,3.13
2017-09-02T08:58:06.825Z,3.40
2017-09-02T09:00:35.156Z,3.80
2017-09-02T09:03:03.725Z,4.03
2017-09-02T09:05:33.254Z,3.77
2017-09-02T09:08:02.359Z,3.80
2017-09-02T09:10:30.715Z,3.80
2017-09-02T09:12:59.206Z,3.40
2017-09-02T09:15:27.580Z,2.83
2017-09-02T09:17:56.492Z,3.50
2017-09-02T09:20:24.794Z,3.80
2017-09-02T09:22:53.094Z,3.97
2017-09-02T09:25:21.467Z,4.90
2017-09-02T09:27:49.823Z,3.70
2017-09-02T09:30:18.144Z,4.50
2017-09-02T09:32:46.479Z,3.90
2017-09-02T09:35:15.139Z,4.33
2017-09-02T09:37:43.593Z,4.10
2017-09-02T09:40:13.206Z,4.17
2017-09-02T09:42:41.506Z,4.20
2017-09-02T09:45:09.863Z,4.30
2017-09-02T09:47:38.176Z,4.13
2017-09-02T09:50:06.475Z,3.90
2017-09-02T09:52:34.844Z,4.47
2017-09-02T09:55:03.141Z,3.63
2017-09-02T09:57:31.478Z,3.10
2017-09-02T09:59:59.782Z,3.20
2017-09-02T10:02:28.126Z,3.33
2017-09-02T10:04:56.493Z,2.90
2017-09-02T10:07:24.823Z,2.87
2017-09-02T10:09:53.129Z,3.47
2017-09-02T10:12:21.463Z,2.53
2017-09-02T10:14:49.767Z,3.10
2017-09-02T10:17:18.111Z,2.87
2017-09-02T10:19:46.411Z,3.40
2017-09-02T10:22:14.818Z,2.83
2017-09-02T10:24:43.346Z,3.47
2017-09-02T10:27:11.646Z,3.50
2017-09-02T10:29:39.977Z,3.13
2017-09-02T10:32:08.303Z,3.53
2017-09-02T10:34:36.632Z,3.37
2017-09-02T10:37:04.976Z,4.10
2017-09-02T10:39:33.327Z,3.73
2017-09-02T10:42:01.625Z,3.17
2017-09-02T10:44:29.972Z,2.57
2017-09-02T10:46:58.344Z,3.77
2017-09-02T10:49:26.663Z,3.00
2017-09-02T10:51:55.010Z,2.93
2017-09-02T10:54:23.346Z,3.43
2017-09-02T10:56:51.662Z,3.10
2017-09-02T10:59:20.003Z,3.27
2017-09-02T11:01:48.303Z,3.03
2017-09-02T11:04:16.609Z,3.50
2017-09-02T11:06:44.932Z,3.50
2017-09-02T11:09:13.759Z,3.37
2017-09-02T11:11:42.089Z,3.93
2017-09-02T11:14:10.398Z,3.00
2017-09-02T11:16:38.708Z,2.83
2017-09-02T11:19:07.044Z,2.87
2017-09-02T11:21:35.353Z,3.23
2017-09-02T11:24:03.904Z,2.83
2017-09-02T11:26:32.237Z,3.50
2017-09-02T11:29:00.570Z,2.27
2017-09-02T11:31:28.971Z,4.20
2017-09-02T11:33:57.290Z,2.50
2017-09-02T11:36:25.592Z,3.30
2017-09-02T11:38:53.944Z,2.70
2017-09-02T11:41:22.254Z,4.10
2017-09-02T11:43:50.561Z,3.17
2017-09-02T11:46:18.894Z,2.87
2017-09-02T11:48:47.254Z,2.40
2017-09-02T11:51:15.582Z,3.37
2017-09-02T11:53:44.831Z,3.27
2017-09-02T11:56:13.554Z,2.60
2017-09-02T11:58:41.870Z,3.00
2017-09-02T12:01:10.182Z,3.13
2017-09-02T12:03:38.527Z,3.10
2017-09-02T12:06:13.048Z,2.47
2017-09-02T12:11:41.420Z,2.40
2017-09-02T12:14:09.828Z,2.80
2017-09-02T12:16:38.148Z,2.53
2017-09-02T12:19:06.458Z,3.00
2017-09-02T12:21:34.801Z,3.23
2017-09-02T12:24:03.107Z,2.80
2017-09-02T12:26:31.405Z,2.70
2017-09-02T12:28:59.894Z,3.50
2017-09-02T12:31:28.409Z,2.83
2017-09-02T12:33:56.733Z,2.60
2017-09-02T12:36:25.052Z,2.97
2017-09-02T12:38:53.448Z,3.30
2017-09-02T12:41:21.778Z,2.27
2017-09-02T12:43:51.357Z,2.73
2017-09-02T12:46:19.702Z,2.70
2017-09-02T12:48:48.022Z,3.20
2017-09-02T12:51:16.354Z,2.87
2017-09-02T12:53:44.683Z,2.50
2017-09-02T12:56:13.256Z,2.90
2017-09-02T12:58:41.664Z,2.23
2017-09-02T13:01:09.973Z,3.33
2017-09-02T13:03:38.291Z,3.47
2017-09-02T13:06:06.627Z,2.77
2017-09-02T13:08:34.934Z,3.23
2017-09-02T13:11:03.277Z,3.00
2017-09-02T13:13:31.620Z,3.03
2017-09-02T13:16:00.013Z,2.30
2017-09-02T13:18:28.355Z,0.90
2017-09-02T13:20:56.692Z,0.97
2017-09-02T13:23:25.229Z,1.00
2017-09-02T13:25:53.531Z,0.80
2017-09-02T13:28:21.900Z,1.10
2017-09-02T13:30:50.211Z,0.90
2017-09-02T13:33:18.506Z,1.10
2017-09-02T13:35:46.835Z,1.53
2017-09-02T13:38:15.162Z,1.13
2017-09-02T13:40:43.517Z,1.17
2017-09-02T13:43:11.850Z,1.30
2017-09-02T13:45:40.146Z,1.33
2017-09-02T13:48:08.476Z,1.20
2017-09-02T13:50:36.820Z,1.10
2017-09-02T13:53:05.123Z,1.27
2017-09-02T13:55:33.472Z,1.13
2017-09-02T13:58:01.809Z,1.23
2017-09-02T14:00:30.107Z,1.30
2017-09-02T14:02:58.444Z,1.40
2017-09-02T14:05:26.811Z,1.10
2017-09-02T14:07:55.129Z,1.40
2017-09-02T14:10:23.433Z,1.43
2017-09-02T14:12:53.689Z,1.70
2017-09-02T14:15:22.487Z,1.30
2017-09-02T14:17:51.937Z,1.40
2017-09-02T14:20:20.240Z,1.80
2017-09-02T14:22:48.546Z,1.63
2017-09-02T14:25:17.120Z,2.27
2017-09-02T14:27:45.519Z,2.30
2017-09-02T14:30:13.865Z,1.93
2017-09-02T14:32:42.538Z,2.00
2017-09-02T14:35:10.869Z,2.00
2017-09-02T14:37:39.254Z,2.00
2017-09-02T14:40:07.569Z,1.63
2017-09-02T14:42:35.934Z,2.00
2017-09-02T14:45:04.417Z,1.70
2017-09-02T14:47:32.770Z,1.70
2017-09-02T14:50:01.380Z,1.60
2017-09-02T14:52:29.713Z,2.33
2017-09-02T14:54:58.197Z,2.27
2017-09-02T14:57:26.512Z,1.77
2017-09-02T14:59:54.826Z,1.93
2017-09-02T15:02:23.263Z,2.10
2017-09-02T15:04:51.641Z,2.03
2017-09-02T15:07:20.225Z,1.83
2017-09-02T15:09:48.577Z,1.93
2017-09-02T15:12:16.874Z,1.90
2017-09-02T15:14:45.235Z,2.00
2017-09-02T15:17:13.959Z,2.57
2017-09-02T15:19:42.265Z,2.27
2017-09-02T15:22:10.606Z,2.30
2017-09-02T15:24:39.018Z,2.07
2017-09-02T15:27:07.345Z,2.80
2017-09-02T15:29:35.673Z,2.67
2017-09-02T15:32:04.005Z,2.70
2017-09-02T15:34:32.350Z,2.73
2017-09-02T15:37:00.659Z,2.63
2017-09-02T15:39:28.986Z,2.60
2017-09-02T15:41:57.320Z,2.43
2017-09-02T15:44:25.662Z,1.70
2017-09-02T15:46:53.994Z,2.57
2017-09-02T15:49:22.356Z,2.10
2017-09-02T15:51:50.756Z,2.60
2017-09-02T15:54:19.060Z,3.23
2017-09-02T15:56:47.414Z,2.60
2017-09-02T15:59:15.781Z,3.50
2017-09-02T16:01:44.187Z,2.83
2017-09-02T16:04:12.485Z,2.67
2017-09-02T16:06:40.809Z,2.77
2017-09-02T16:09:09.113Z,2.60
2017-09-02T16:11:37.536Z,2.90
2017-09-02T16:14:05.843Z,2.40
2017-09-02T16:16:34.149Z,2.70
2017-09-02T16:19:03.400Z,2.63
2017-09-02T16:21:32.037Z,2.50
2017-09-02T16:24:00.371Z,3.10
2017-09-02T16:26:28.814Z,2.70
2017-09-02T16:28:57.186Z,2.90
2017-09-02T16:31:25.482Z,3.63
2017-09-02T16:33:53.812Z,3.57
2017-09-02T16:36:22.164Z,3.47
2017-09-02T16:38:50.496Z,3.90
2017-09-02T16:41:18.837Z,2.80
2017-09-02T16:43:47.280Z,3.50
2017-09-02T16:46:15.632Z,3.40
2017-09-02T16:48:43.975Z,4.97
2017-09-02T16:51:12.372Z,4.80
2017-09-02T16:53:40.696Z,4.40
2017-09-02T16:56:09.035Z,3.93
2017-09-02T16:58:37.380Z,2.87
2017-09-02T17:01:05.698Z,3.70
2017-09-02T17:03:33.998Z,3.90
2017-09-02T17:06:02.486Z,4.30
2017-09-02T17:08:30.788Z,3.70
2017-09-02T17:10:59.845Z,3.23
2017-09-02T17:13:28.181Z,3.30
2017-09-02T17:15:56.497Z,3.93
2017-09-02T17:18:24.850Z,3.83
2017-09-02T17:20:53.227Z,4.50
2017-09-02T17:23:34.727Z,4.80
2017-09-02T17:26:03.793Z,3.83
2017-09-02T17:28:32.126Z,7.20
2017-09-02T17:31:00.430Z,5.53
2017-09-02T17:33:28.758Z,4.37
2017-09-02T17:35:57.086Z,4.30
2017-09-02T17:38:25.390Z,4.60
2017-09-02T17:40:53.718Z,3.93
2017-09-02T17:43:22.047Z,4.33
2017-09-02T17:45:50.578Z,4.23
2017-09-02T17:48:18.888Z,4.30
2017-09-02T17:50:47.548Z,3.53
2017-09-02T17:53:15.890Z,4.80
2017-09-02T17:55:44.229Z,4.60
2017-09-02T17:58:12.532Z,4.47
2017-09-02T18:00:40.891Z,3.60
2017-09-02T18:03:09.210Z,3.70
2017-09-02T18:05:37.510Z,3.40
2017-09-02T18:08:05.830Z,4.43
2017-09-02T18:10:34.328Z,3.60
2017-09-02T18:13:03.058Z,3.70
2017-09-02T18:15:31.422Z,3.40
2017-09-02T18:17:59.741Z,3.20
2017-09-02T18:20:28.072Z,6.00
2017-09-02T18:22:57.242Z,4.73
2017-09-02T18:25:25.559Z,4.60
2017-09-02T18:27:54.009Z,4.30
2017-09-02T18:30:22.324Z,3.87
2017-09-02T18:32:50.644Z,4.27
2017-09-02T18:35:18.947Z,3.37
2017-09-02T18:37:48.060Z,3.87
2017-09-02T18:40:16.386Z,3.97
2017-09-02T18:42:44.704Z,4.90
2017-09-02T18:45:13.006Z,3.90
2017-09-02T18:47:41.327Z,4.53
2017-09-02T18:50:09.638Z,3.90
2017-09-02T18:52:37.937Z,4.50
2017-09-02T18:55:06.281Z,5.30
2017-09-02T18:57:34.578Z,3.70
2017-09-02T19:00:02.883Z,3.50
2017-09-02T19:02:31.224Z,4.40
2017-09-02T19:04:59.514Z,4.67
2017-09-02T19:07:27.823Z,5.40
2017-09-02T19:09:56.141Z,4.83
2017-09-02T19:12:24.456Z,5.37
2017-09-02T19:14:52.873Z,5.50
2017-09-02T19:17:21.170Z,5.97
2017-09-02T19:19:49.479Z,6.83
2017-09-02T19:22:17.801Z,6.23
2017-09-02T19:24:46.138Z,6.10
2017-09-02T19:27:14.554Z,6.50
2017-09-02T19:29:42.963Z,4.90
2017-09-02T19:32:11.296Z,4.60
2017-09-02T19:34:39.597Z,4.57
2017-09-02T19:37:07.920Z,4.67
2017-09-02T19:39:36.242Z,4.37
2017-09-02T19:42:04.566Z,4.70
2017-09-02T19:44:32.927Z,5.00
2017-09-02T19:47:01.259Z,4.00
2017-09-02T19:49:29.638Z,4.37
2017-09-02T19:51:58.079Z,4.53
2017-09-02T19:54:26.445Z,4.00
2017-09-02T19:56:54.949Z,4.20
2017-09-02T19:59:23.272Z,4.63
2017-09-02T20:01:52.160Z,4.37
2017-09-02T20:04:21.033Z,4.73
2017-09-02T20:06:49.333Z,3.73
2017-09-02T20:09:17.652Z,4.13
2017-09-02T20:11:45.987Z,3.70
2017-09-02T20:14:14.289Z,3.87
2017-09-02T20:16:42.632Z,3.77
2017-09-02T20:19:10.921Z,3.93
2017-09-02T20:21:39.245Z,4.63
2017-09-02T20:24:07.579Z,3.60
2017-09-02T20:26:37.690Z,3.67
2017-09-02T20:29:06.030Z,3.50
2017-09-02T20:31:34.381Z,3.73
2017-09-02T20:34:02.685Z,3.80
2017-09-02T20:36:30.995Z,4.00
2017-09-02T20:38:59.532Z,4.50
2017-09-02T20:41:27.996Z,5.30
2017-09-02T20:43:56.321Z,4.30
2017-09-02T20:46:24.611Z,4.27
2017-09-02T20:48:52.935Z,4.60
2017-09-02T20:51:25.298Z,5.07
2017-09-02T20:53:53.648Z,5.17
2017-09-02T20:56:22.853Z,4.70
2017-09-02T20:58:51.206Z,5.23
2017-09-02T21:01:20.674Z,4.40
2017-09-02T21:03:49.143Z,4.53
2017-09-02T21:06:17.455Z,6.30
2017-09-02T21:08:46.481Z,5.97
2017-09-02T21:11:15.416Z,5.40
2017-09-02T21:13:44.162Z,5.03
2017-09-02T21:16:14.224Z,5.00
2017-09-02T21:18:43.649Z,4.13
2017-09-02T21:21:11.980Z,3.87
2017-09-02T21:23:40.276Z,4.00
2017-09-02T21:26:08.593Z,4.20
2017-09-02T21:28:36.893Z,4.20
2017-09-02T21:31:05.229Z,4.97
2017-09-02T21:33:33.538Z,4.27
2017-09-02T21:36:01.864Z,4.30
2017-09-02T21:38:30.203Z,4.30
2017-09-02T21:40:58.540Z,4.83
2017-09-02T21:43:26.838Z,5.37
2017-09-02T21:45:55.286Z,5.13
2017-09-02T21:48:23.801Z,6.20
2017-09-02T21:50:52.189Z,6.00
2017-09-02T21:53:21.222Z,5.60
2017-09-02T21:55:49.831Z,6.37
2017-09-02T21:58:18.221Z,6.60
2017-09-02T22:00:46.553Z,6.17
2017-09-02T22:03:15.030Z,5.60
2017-09-02T22:05:43.462Z,5.43
2017-09-02T22:08:11.820Z,6.87
2017-09-02T22:10:40.147Z,5.93
2017-09-02T22:13:08.469Z,6.50
2017-09-02T22:15:37.533Z,6.90
2017-09-02T22:18:05.866Z,7.60
2017-09-02T22:20:34.259Z,6.40
2017-09-02T22:23:02.672Z,8.43
2017-09-02T22:25:31.255Z,6.90
2017-09-02T22:27:59.557Z,6.73
2017-09-02T22:30:27.936Z,6.33
2017-09-02T22:32:56.232Z,6.90
2017-09-02T22:35:24.565Z,7.20
2017-09-02T22:37:52.873Z,5.90
2017-09-02T22:40:21.171Z,6.97
2017-09-02T22:42:49.654Z,6.30
2017-09-02T22:45:18.116Z,6.07
2017-09-02T22:47:47.551Z,5.60
2017-09-02T22:50:15.850Z,6.60
2017-09-02T22:52:44.276Z,5.53
2017-09-02T22:55:12.654Z,7.40
2017-09-02T22:57:40.995Z,6.40
2017-09-02T23:00:09.582Z,8.20
2017-09-02T23:02:37.939Z,8.80
2017-09-02T23:05:06.527Z,7.87
2017-09-02T23:07:34.843Z,7.80
2017-09-02T23:10:03.167Z,8.23
2017-09-02T23:12:31.504Z,5.90
2017-09-02T23:15:00.575Z,5.73
2017-09-02T23:17:28.879Z,6.10
2017-09-02T23:19:58.022Z,5.63
2017-09-02T23:22:26.376Z,5.63
2017-09-02T23:24:54.704Z,5.17
2017-09-02T23:27:23.039Z,4.60
2017-09-02T23:29:51.374Z,4.93
2017-09-02T23:32:20.374Z,5.13
2017-09-02T23:34:48.733Z,4.83
2017-09-02T23:37:17.438Z,5.33
2017-09-02T23:39:45.803Z,6.20
2017-09-02T23:42:14.102Z,5.10
2017-09-02T23:44:42.490Z,5.37
2017-09-02T23:47:10.799Z,5.40
2017-09-02T23:49:39.501Z,5.80
2017-09-02T23:52:07.873Z,6.30
2017-09-02T23:54:36.741Z,6.50
2017-09-02T23:57:05.039Z,5.70
2017-09-02T23:59:33.367Z,6.27
